Time;durP1;ratioP1;P1;durP2;ratioP2;P2;SDS_P1;SDS_P2;PMS_P1;PMS_P2;Temp;Humidity;BMP_temperature;BMP_pressure;BME280_temperature;BME280_humidity;BME280_pressure;Samples;Min_cycle;Max_cycle;Signal;HPM_P1;HPM_P2
2023/05/17 00:00:09;;;;;;;17.23;4.55;;;;;;;;;;6308512;22;20463;-80
2023/05/17 00:02:35;;;;;;;16.83;3.60;;;;;;;;;;6307278;22;20086;-81
2023/05/17 00:05:01;;;;;;;10.48;3.40;;;;;;;;;;6306547;22;20019;-81
2023/05/17 00:07:27;;;;;;;15.32;3.40;;;;;;;;;;6308438;22;20026;-80
2023/05/17 00:09:53;;;;;;;12.02;3.70;;;;;;;;;;6281093;22;20148;-81
2023/05/17 00:12:19;;;;;;;10.00;3.38;;;;;;;;;;6306840;22;20488;-81
2023/05/17 00:14:45;;;;;;;13.48;3.50;;;;;;;;;;6308465;22;20072;-81
2023/05/17 00:17:11;;;;;;;12.65;3.25;;;;;;;;;;6306426;22;20015;-81
2023/05/17 00:19:37;;;;;;;15.52;3.08;;;;;;;;;;6306730;22;20079;-81
2023/05/17 00:22:04;;;;;;;11.63;4.05;;;;;;;;;;6308521;22;20023;-81
2023/05/17 00:24:30;;;;;;;14.18;3.60;;;;;;;;;;6307037;22;20073;-81
2023/05/17 00:26:56;;;;;;;14.65;3.95;;;;;;;;;;6307111;22;20021;-81
2023/05/17 00:29:22;;;;;;;13.68;4.03;;;;;;;;;;6307018;22;20144;-81
2023/05/17 00:31:48;;;;;;;14.70;3.95;;;;;;;;;;6308227;22;20019;-81
2023/05/17 00:34:14;;;;;;;10.55;3.30;;;;;;;;;;6306730;22;20050;-81
2023/05/17 00:36:40;;;;;;;15.57;3.97;;;;;;;;;;6306702;22;20019;-81
2023/05/17 00:39:06;;;;;;;13.20;3.80;;;;;;;;;;6306683;22;20011;-81
2023/05/17 00:41:32;;;;;;;14.50;3.92;;;;;;;;;;6307610;22;20112;-82
2023/05/17 00:43:58;;;;;;;17.75;3.35;;;;;;;;;;6308138;22;20019;-81
2023/05/17 00:46:24;;;;;;;20.08;4.65;;;;;;;;;;6306637;22;20021;-81
2023/05/17 00:48:50;;;;;;;14.77;2.80;;;;;;;;;;6306087;22;20070;-81
2023/05/17 00:51:18;;;;;;;13.88;3.88;;;;;;;;;;6306418;22;20090;-81
2023/05/17 00:53:44;;;;;;;13.02;3.60;;;;;;;;;;6308126;22;20023;-81
2023/05/17 00:56:10;;;;;;;16.10;3.72;;;;;;;;;;6306850;22;20026;-81
2023/05/17 00:58:36;;;;;;;12.82;3.35;;;;;;;;;;6306513;22;20100;-81
2023/05/17 01:01:03;;;;;;;13.18;3.05;;;;;;;;;;6306466;22;20098;-82
2023/05/17 01:03:29;;;;;;;16.20;2.88;;;;;;;;;;6307962;22;20098;-81
2023/05/17 01:05:55;;;;;;;12.80;3.10;;;;;;;;;;6308008;22;20019;-81
2023/05/17 01:08:21;;;;;;;13.25;2.97;;;;;;;;;;6308832;22;20353;-81
2023/05/17 01:11:05;;;;;;;14.40;2.85;;;;;;;;;;6306462;22;20384;-81
2023/05/17 01:13:32;;;;;;;11.80;2.23;;;;;;;;;;6280725;22;20049;-81
2023/05/17 01:16:18;;;;;;;17.80;2.60;;;;;;;;;;6308032;22;20306;-81
2023/05/17 01:18:46;;;;;;;11.95;2.80;;;;;;;;;;6307178;22;20421;-81
2023/05/17 01:21:51;;;;;;;10.05;2.30;;;;;;;;;;6309214;22;20019;-81
2023/05/17 01:24:26;;;;;;;16.08;2.35;;;;;;;;;;6221086;23;20020;-81
2023/05/17 01:26:53;;;;;;;9.45;1.95;;;;;;;;;;6220195;23;20035;-81
2023/05/17 01:29:24;;;;;;;11.43;2.33;;;;;;;;;;6265581;22;20022;-81
2023/05/17 01:31:50;;;;;;;12.02;2.78;;;;;;;;;;6310111;22;20073;-82
2023/05/17 01:34:24;;;;;;;15.45;2.20;;;;;;;;;;6308742;22;20019;-81
2023/05/17 01:36:50;;;;;;;15.10;2.38;;;;;;;;;;6309999;22;20020;-81
2023/05/17 01:39:16;;;;;;;12.73;2.35;;;;;;;;;;6308367;22;20059;-81
2023/05/17 01:41:43;;;;;;;12.55;2.63;;;;;;;;;;6308384;22;20016;-81
2023/05/17 01:44:24;;;;;;;13.43;2.13;;;;;;;;;;6308346;22;20468;-81
2023/05/17 01:46:52;;;;;;;13.80;1.75;;;;;;;;;;6308456;22;20019;-81
2023/05/17 01:49:24;;;;;;;19.48;2.78;;;;;;;;;;6309939;22;20495;-82
2023/05/17 01:52:12;;;;;;;11.77;1.52;;;;;;;;;;6308135;22;20030;-82
2023/05/17 01:54:43;;;;;;;10.13;1.67;;;;;;;;;;6310392;22;20429;-81
2023/05/17 01:57:09;;;;;;;13.63;1.98;;;;;;;;;;6308285;22;20015;-81
2023/05/17 01:59:37;;;;;;;22.48;2.58;;;;;;;;;;6307903;22;20020;-81
2023/05/17 02:02:08;;;;;;;14.95;1.90;;;;;;;;;;6308483;22;20086;-81
2023/05/17 02:04:37;;;;;;;10.45;2.05;;;;;;;;;;6309137;22;20057;-81
2023/05/17 02:07:03;;;;;;;13.30;2.25;;;;;;;;;;6283303;22;20019;-81
2023/05/17 02:09:29;;;;;;;15.63;2.17;;;;;;;;;;6308379;22;20019;-81
2023/05/17 02:11:55;;;;;;;12.55;2.03;;;;;;;;;;6307700;22;20026;-81
2023/05/17 02:14:22;;;;;;;10.52;1.83;;;;;;;;;;6308071;22;20019;-81
2023/05/17 02:16:48;;;;;;;14.98;3.08;;;;;;;;;;6308339;22;20015;-82
2023/05/17 02:19:14;;;;;;;11.48;1.80;;;;;;;;;;6309571;22;20055;-81
2023/05/17 02:21:40;;;;;;;16.08;2.50;;;;;;;;;;6282469;22;20034;-81
2023/05/17 02:24:06;;;;;;;11.77;2.10;;;;;;;;;;6309474;22;20066;-81
2023/05/17 02:26:32;;;;;;;16.10;2.45;;;;;;;;;;6307848;22;20015;-81
2023/05/17 02:28:58;;;;;;;11.55;1.55;;;;;;;;;;6307854;22;20016;-81
2023/05/17 02:31:25;;;;;;;17.08;2.83;;;;;;;;;;6282865;22;20027;-81
2023/05/17 02:33:52;;;;;;;16.48;2.42;;;;;;;;;;6309322;22;20456;-81
2023/05/17 02:36:18;;;;;;;15.93;1.75;;;;;;;;;;6309974;22;20015;-81
2023/05/17 02:38:44;;;;;;;11.48;2.67;;;;;;;;;;6307354;22;20026;-82
2023/05/17 02:41:10;;;;;;;9.65;1.45;;;;;;;;;;6307766;22;20092;-81
2023/05/17 02:43:36;;;;;;;18.60;3.15;;;;;;;;;;6308069;22;20019;-81
2023/05/17 02:46:03;;;;;;;16.67;2.40;;;;;;;;;;6307286;22;20019;-81
2023/05/17 02:48:29;;;;;;;16.77;2.53;;;;;;;;;;6307565;22;20015;-81
2023/05/17 02:50:55;;;;;;;21.15;2.75;;;;;;;;;;6309160;22;20061;-81
2023/05/17 02:53:21;;;;;;;16.00;3.22;;;;;;;;;;6307234;22;20018;-81
2023/05/17 02:55:47;;;;;;;16.75;3.05;;;;;;;;;;6307492;22;20032;-81
2023/05/17 02:58:13;;;;;;;12.48;2.05;;;;;;;;;;6307032;22;20027;-81
2023/05/17 03:00:39;;;;;;;14.75;2.45;;;;;;;;;;6309071;22;20059;-81
2023/05/17 03:03:05;;;;;;;14.73;2.50;;;;;;;;;;6307533;22;20015;-81
2023/05/17 03:05:33;;;;;;;20.08;3.17;;;;;;;;;;6281380;22;20030;-81
2023/05/17 03:07:59;;;;;;;16.15;3.42;;;;;;;;;;6307023;22;20015;-81
2023/05/17 03:10:25;;;;;;;16.90;2.45;;;;;;;;;;6309020;22;20015;-81
2023/05/17 03:12:51;;;;;;;15.90;2.47;;;;;;;;;;6307542;22;20065;-81
2023/05/17 03:15:17;;;;;;;14.48;2.13;;;;;;;;;;6307472;22;20027;-81
2023/05/17 03:17:43;;;;;;;14.95;2.25;;;;;;;;;;6307443;22;20015;-81
2023/05/17 03:20:09;;;;;;;14.30;2.20;;;;;;;;;;6307326;22;20449;-81
2023/05/17 03:22:35;;;;;;;11.70;2.25;;;;;;;;;;6307685;22;20015;-81
2023/05/17 03:25:02;;;;;;;15.23;1.88;;;;;;;;;;6308978;22;20096;-81
2023/05/17 03:27:29;;;;;;;15.20;2.30;;;;;;;;;;6307337;22;20072;-82
2023/05/17 03:29:55;;;;;;;14.13;1.80;;;;;;;;;;6306782;22;20019;-82
2023/05/17 03:32:22;;;;;;;15.73;2.00;;;;;;;;;;6306961;22;20453;-81
2023/05/17 03:34:48;;;;;;;19.15;2.22;;;;;;;;;;6307528;22;20022;-82
2023/05/17 03:37:14;;;;;;;15.57;1.92;;;;;;;;;;6307246;22;20091;-81
2023/05/17 03:39:41;;;;;;;14.18;2.13;;;;;;;;;;6307150;22;20026;-82
2023/05/17 03:42:07;;;;;;;18.55;2.45;;;;;;;;;;6308820;22;20019;-81
2023/05/17 03:44:33;;;;;;;12.57;2.10;;;;;;;;;;6281325;22;20452;-81
2023/05/17 03:46:59;;;;;;;11.77;1.55;;;;;;;;;;6307433;22;20325;-81
2023/05/17 03:49:25;;;;;;;9.95;1.67;;;;;;;;;;6307320;22;20015;-82
2023/05/17 03:51:51;;;;;;;14.50;1.85;;;;;;;;;;6308543;22;20019;-81
2023/05/17 03:54:17;;;;;;;13.10;1.70;;;;;;;;;;6308039;22;20022;-81
2023/05/17 03:56:46;;;;;;;13.30;1.55;;;;;;;;;;6306939;22;20437;-81
2023/05/17 03:59:15;;;;;;;16.30;2.35;;;;;;;;;;6306549;22;20449;-81
2023/05/17 04:01:42;;;;;;;10.88;1.60;;;;;;;;;;6308489;22;20023;-81
2023/05/17 04:04:08;;;;;;;16.58;2.30;;;;;;;;;;6307922;22;20090;-81
2023/05/17 04:06:34;;;;;;;12.05;1.70;;;;;;;;;;6306978;22;20463;-81
2023/05/17 04:09:00;;;;;;;13.65;1.80;;;;;;;;;;6306884;22;20019;-82
2023/05/17 04:11:27;;;;;;;13.07;2.25;;;;;;;;;;6306832;22;20064;-81
2023/05/17 04:13:55;;;;;;;13.10;2.00;;;;;;;;;;6307072;22;20012;-82
2023/05/17 04:16:21;;;;;;;14.18;2.45;;;;;;;;;;6306860;22;20349;-82
2023/05/17 04:18:51;;;;;;;14.48;1.65;;;;;;;;;;6307713;22;20015;-82
2023/05/17 04:21:17;;;;;;;11.93;1.45;;;;;;;;;;6306720;22;20015;-81
2023/05/17 04:23:44;;;;;;;11.73;1.63;;;;;;;;;;6308372;22;20026;-82
2023/05/17 04:26:10;;;;;;;8.85;1.35;;;;;;;;;;6306797;22;20015;-81
2023/05/17 04:28:36;;;;;;;14.07;1.35;;;;;;;;;;6308222;22;20015;-82
2023/05/17 04:31:06;;;;;;;9.98;1.40;;;;;;;;;;6307779;22;20030;-82
2023/05/17 04:33:33;;;;;;;17.98;1.63;;;;;;;;;;6307844;22;20018;-81
2023/05/17 04:35:59;;;;;;;10.02;1.27;;;;;;;;;;6307054;22;20060;-82
2023/05/17 04:38:25;;;;;;;14.57;1.48;;;;;;;;;;6306856;22;20022;-82
2023/05/17 04:40:51;;;;;;;13.73;1.35;;;;;;;;;;6306759;22;20019;-82
2023/05/17 04:43:17;;;;;;;13.70;1.20;;;;;;;;;;6281059;22;20505;-81
2023/05/17 04:45:43;;;;;;;9.52;1.33;;;;;;;;;;6281010;22;20015;-81
2023/05/17 04:48:09;;;;;;;16.70;2.05;;;;;;;;;;6306567;22;20027;-81
2023/05/17 04:50:35;;;;;;;11.10;1.50;;;;;;;;;;6281877;22;20015;-82
2023/05/17 04:53:01;;;;;;;12.90;1.48;;;;;;;;;;6306702;22;20027;-81
2023/05/17 04:55:27;;;;;;;12.68;1.38;;;;;;;;;;6308082;22;20015;-81
2023/05/17 04:57:53;;;;;;;13.55;1.63;;;;;;;;;;6280938;22;20026;-81
2023/05/17 05:00:22;;;;;;;12.93;1.10;;;;;;;;;;6306368;22;20460;-81
2023/05/17 05:02:48;;;;;;;6.82;0.65;;;;;;;;;;6306799;22;20019;-81
2023/05/17 05:05:14;;;;;;;9.57;1.10;;;;;;;;;;6307369;22;20050;-82
2023/05/17 05:07:40;;;;;;;7.88;1.08;;;;;;;;;;6307576;22;20069;-81
2023/05/17 05:10:07;;;;;;;11.55;1.23;;;;;;;;;;6308663;22;20015;-81
2023/05/17 05:12:33;;;;;;;9.88;1.10;;;;;;;;;;6308091;22;20058;-81
2023/05/17 05:14:59;;;;;;;11.43;1.20;;;;;;;;;;6306830;22;20065;-81
2023/05/17 05:17:25;;;;;;;10.57;1.60;;;;;;;;;;6308085;22;20058;-82
2023/05/17 05:19:51;;;;;;;11.60;1.65;;;;;;;;;;6281771;22;20360;-82
2023/05/17 05:22:17;;;;;;;11.13;1.13;;;;;;;;;;6308883;22;20015;-81
2023/05/17 05:24:43;;;;;;;9.60;1.08;;;;;;;;;;6308014;22;20038;-81
2023/05/17 05:27:09;;;;;;;11.30;1.67;;;;;;;;;;6307960;22;20019;-81
2023/05/17 05:29:35;;;;;;;7.18;0.70;;;;;;;;;;6306603;22;20026;-82
2023/05/17 05:32:01;;;;;;;5.10;0.82;;;;;;;;;;6308892;22;20020;-81
2023/05/17 05:34:28;;;;;;;5.47;0.68;;;;;;;;;;6307900;22;20338;-81
2023/05/17 05:36:54;;;;;;;13.10;1.17;;;;;;;;;;6306385;22;20437;-81
2023/05/17 05:39:20;;;;;;;11.20;0.70;;;;;;;;;;6308023;22;20022;-81
2023/05/17 05:41:46;;;;;;;7.30;0.50;;;;;;;;;;6306394;22;20015;-81
2023/05/17 05:44:12;;;;;;;10.25;0.90;;;;;;;;;;6306316;22;20394;-81
2023/05/17 05:46:38;;;;;;;6.03;0.63;;;;;;;;;;6307161;22;20287;-82
2023/05/17 05:49:05;;;;;;;9.52;0.50;;;;;;;;;;6307685;22;20011;-81
2023/05/17 05:51:31;;;;;;;7.40;0.52;;;;;;;;;;6308381;22;20022;-81
2023/05/17 05:53:58;;;;;;;6.80;1.10;;;;;;;;;;6280816;22;20020;-82
2023/05/17 05:56:26;;;;;;;7.35;0.30;;;;;;;;;;6307798;22;20023;-81
2023/05/17 05:58:54;;;;;;;4.78;0.50;;;;;;;;;;6307366;22;20090;-82
2023/05/17 06:01:21;;;;;;;8.13;0.70;;;;;;;;;;6306328;22;20015;-82
2023/05/17 06:03:47;;;;;;;5.72;0.45;;;;;;;;;;6308068;22;20396;-82
2023/05/17 06:06:15;;;;;;;4.43;0.38;;;;;;;;;;6307745;22;20077;-82
2023/05/17 06:08:44;;;;;;;7.40;0.40;;;;;;;;;;6281523;22;20011;-82
2023/05/17 06:11:10;;;;;;;4.40;0.32;;;;;;;;;;6307466;22;20019;-82
2023/05/17 06:13:36;;;;;;;4.10;0.35;;;;;;;;;;6308469;22;20094;-82
2023/05/17 06:16:04;;;;;;;5.35;0.38;;;;;;;;;;6308075;22;20019;-82
2023/05/17 06:18:30;;;;;;;4.32;0.35;;;;;;;;;;6307946;22;20023;-82
2023/05/17 06:20:56;;;;;;;8.13;0.30;;;;;;;;;;6309026;22;20465;-82
2023/05/17 06:23:23;;;;;;;3.60;0.30;;;;;;;;;;6308052;22;20084;-82
2023/05/17 06:25:49;;;;;;;5.35;0.40;;;;;;;;;;6307817;22;20023;-82
2023/05/17 06:28:15;;;;;;;7.55;0.65;;;;;;;;;;6281980;22;20047;-82
2023/05/17 06:30:41;;;;;;;3.22;0.28;;;;;;;;;;6310002;22;20326;-82
2023/05/17 06:33:07;;;;;;;4.97;0.30;;;;;;;;;;6308855;22;20022;-83
2023/05/17 06:35:34;;;;;;;5.75;0.40;;;;;;;;;;6308842;22;20026;-82
2023/05/17 06:38:01;;;;;;;5.22;0.50;;;;;;;;;;6310034;22;20065;-82
2023/05/17 06:40:27;;;;;;;4.10;0.57;;;;;;;;;;6307712;22;20015;-82
2023/05/17 06:42:53;;;;;;;5.72;0.60;;;;;;;;;;6310245;22;20015;-82
2023/05/17 06:45:19;;;;;;;4.28;0.30;;;;;;;;;;6307711;22;20433;-82
2023/05/17 06:47:45;;;;;;;5.70;0.65;;;;;;;;;;6309312;22;20037;-82
2023/05/17 06:50:11;;;;;;;5.55;0.40;;;;;;;;;;6309182;22;20012;-82
2023/05/17 06:52:37;;;;;;;5.20;0.38;;;;;;;;;;6309159;22;20025;-82
2023/05/17 06:55:03;;;;;;;5.85;0.60;;;;;;;;;;6308020;22;20011;-82
2023/05/17 06:57:29;;;;;;;5.45;0.40;;;;;;;;;;6307688;22;20168;-82
2023/05/17 06:59:55;;;;;;;6.70;0.50;;;;;;;;;;6307023;22;20153;-82
2023/05/17 07:02:22;;;;;;;6.03;0.43;;;;;;;;;;6307953;22;20329;-82
2023/05/17 07:04:48;;;;;;;5.53;0.80;;;;;;;;;;6308589;22;20067;-82
2023/05/17 07:07:14;;;;;;;4.70;0.40;;;;;;;;;;6309036;22;20020;-82
2023/05/17 07:09:40;;;;;;;8.10;0.40;;;;;;;;;;6307690;22;20046;-82
2023/05/17 07:12:06;;;;;;;5.57;0.50;;;;;;;;;;6309016;22;20054;-82
2023/05/17 07:14:32;;;;;;;8.18;1.13;;;;;;;;;;6308906;22;20026;-82
2023/05/17 07:16:58;;;;;;;8.63;0.40;;;;;;;;;;6281670;22;20015;-82
2023/05/17 07:19:27;;;;;;;8.70;0.50;;;;;;;;;;6306772;22;20023;-82
2023/05/17 07:21:53;;;;;;;8.35;0.75;;;;;;;;;;6308203;22;20413;-82
2023/05/17 07:24:19;;;;;;;3.17;0.32;;;;;;;;;;6307406;22;20023;-82
2023/05/17 07:26:45;;;;;;;4.30;0.50;;;;;;;;;;6308758;22;20098;-82
2023/05/17 07:29:12;;;;;;;5.57;0.40;;;;;;;;;;6307237;22;20375;-82
2023/05/17 07:31:38;;;;;;;6.00;0.60;;;;;;;;;;6308882;22;20015;-82
2023/05/17 07:34:04;;;;;;;5.60;0.40;;;;;;;;;;6308685;22;20093;-82
2023/05/17 07:36:30;;;;;;;7.22;0.63;;;;;;;;;;6308677;22;20045;-82
2023/05/17 07:38:57;;;;;;;5.63;0.50;;;;;;;;;;6306793;22;20019;-83
2023/05/17 07:41:23;;;;;;;6.20;0.70;;;;;;;;;;6307102;22;20011;-82
2023/05/17 07:43:49;;;;;;;4.63;0.80;;;;;;;;;;6281712;22;20050;-82
2023/05/17 07:46:15;;;;;;;7.47;0.63;;;;;;;;;;6307019;22;20072;-82
2023/05/17 07:48:42;;;;;;;6.07;0.60;;;;;;;;;;6308026;22;20019;-82
2023/05/17 07:51:08;;;;;;;6.05;0.30;;;;;;;;;;6306975;22;20019;-84
2023/05/17 07:53:34;;;;;;;9.48;0.98;;;;;;;;;;6308574;22;20387;-83
2023/05/17 07:56:00;;;;;;;7.57;0.95;;;;;;;;;;6308078;22;20103;-83
2023/05/17 07:58:26;;;;;;;4.03;0.70;;;;;;;;;;6280757;22;20026;-83
2023/05/17 08:00:52;;;;;;;8.00;0.75;;;;;;;;;;6308493;22;20464;-83
2023/05/17 08:03:18;;;;;;;6.97;0.65;;;;;;;;;;6309167;22;20015;-83
2023/05/17 08:05:44;;;;;;;6.43;0.57;;;;;;;;;;6309427;22;20022;-82
2023/05/17 08:08:10;;;;;;;7.75;0.60;;;;;;;;;;6307115;22;20094;-82
2023/05/17 08:10:36;;;;;;;8.60;0.68;;;;;;;;;;6281545;22;20030;-82
2023/05/17 08:13:03;;;;;;;8.18;0.80;;;;;;;;;;6307854;22;20012;-83
2023/05/17 08:15:29;;;;;;;5.75;0.60;;;;;;;;;;6307862;22;20085;-83
2023/05/17 08:17:55;;;;;;;6.85;0.68;;;;;;;;;;6307832;22;20015;-82
2023/05/17 08:20:21;;;;;;;9.02;0.70;;;;;;;;;;6306713;22;20030;-82
2023/05/17 08:22:48;;;;;;;6.75;0.60;;;;;;;;;;6281015;22;20022;-82
2023/05/17 08:25:14;;;;;;;6.97;0.80;;;;;;;;;;6306374;22;20019;-82
2023/05/17 08:27:40;;;;;;;8.18;1.10;;;;;;;;;;6309214;22;20329;-83
2023/05/17 08:30:06;;;;;;;8.23;1.13;;;;;;;;;;6306589;22;20018;-82
2023/05/17 08:32:32;;;;;;;5.50;0.85;;;;;;;;;;6308169;22;20072;-82
2023/05/17 08:34:59;;;;;;;6.57;0.80;;;;;;;;;;6307956;22;20038;-82
2023/05/17 08:37:25;;;;;;;9.02;1.15;;;;;;;;;;6305871;22;20019;-82
2023/05/17 08:39:51;;;;;;;7.50;0.60;;;;;;;;;;6280005;22;20094;-82
2023/05/17 08:42:20;;;;;;;8.55;0.77;;;;;;;;;;6306576;22;20019;-82
2023/05/17 08:44:46;;;;;;;9.57;0.88;;;;;;;;;;6307179;22;20032;-81
2023/05/17 08:47:25;;;;;;;6.05;0.82;;;;;;;;;;6308085;22;20015;-81
2023/05/17 08:49:56;;;;;;;7.18;0.80;;;;;;;;;;6307588;22;20016;-81
2023/05/17 08:52:22;;;;;;;4.40;0.73;;;;;;;;;;6308086;22;20065;-81
2023/05/17 08:54:48;;;;;;;10.52;1.05;;;;;;;;;;6308078;22;20026;-82
2023/05/17 08:57:17;;;;;;;7.50;0.85;;;;;;;;;;6306845;22;20015;-82
2023/05/17 08:59:44;;;;;;;10.02;1.00;;;;;;;;;;6306390;22;20382;-81
2023/05/17 09:02:10;;;;;;;8.65;0.75;;;;;;;;;;6308277;22;20022;-82
2023/05/17 09:04:36;;;;;;;5.80;0.65;;;;;;;;;;6307465;22;20505;-81
2023/05/17 09:07:02;;;;;;;5.85;0.57;;;;;;;;;;6307921;22;20015;-82
2023/05/17 09:09:28;;;;;;;7.47;0.60;;;;;;;;;;6280528;22;20011;-82
2023/05/17 09:11:55;;;;;;;6.75;0.60;;;;;;;;;;6306433;22;20023;-82
2023/05/17 09:14:21;;;;;;;5.00;0.40;;;;;;;;;;6306449;22;20051;-82
2023/05/17 09:16:47;;;;;;;4.85;0.85;;;;;;;;;;6308617;22;20019;-81
2023/05/17 09:19:14;;;;;;;10.00;1.30;;;;;;;;;;6306398;22;20376;-81
2023/05/17 09:21:44;;;;;;;6.78;0.80;;;;;;;;;;6306237;22;20023;-81
2023/05/17 09:24:10;;;;;;;9.80;1.00;;;;;;;;;;6308678;22;20030;-82
2023/05/17 09:26:37;;;;;;;5.78;0.68;;;;;;;;;;6306304;22;20337;-81
2023/05/17 09:29:07;;;;;;;8.00;0.98;;;;;;;;;;6306203;22;20018;-82
2023/05/17 09:31:33;;;;;;;6.05;0.63;;;;;;;;;;6308497;22;20065;-81
2023/05/17 09:33:59;;;;;;;8.90;1.02;;;;;;;;;;6306228;22;20011;-82
2023/05/17 09:36:26;;;;;;;6.38;0.80;;;;;;;;;;6307847;22;20064;-81
2023/05/17 09:39:03;;;;;;;6.03;0.95;;;;;;;;;;6307798;22;20015;-81
2023/05/17 09:41:41;;;;;;;6.53;1.05;;;;;;;;;;6306669;22;20011;-81
2023/05/17 09:44:08;;;;;;;6.13;1.23;;;;;;;;;;6308621;22;20034;-81
2023/05/17 09:46:35;;;;;;;7.28;0.73;;;;;;;;;;6309249;22;20015;-81
2023/05/17 09:49:02;;;;;;;5.38;0.80;;;;;;;;;;6310325;22;20098;-81
2023/05/17 09:51:35;;;;;;;8.02;0.98;;;;;;;;;;6307942;22;20094;-81
2023/05/17 09:54:02;;;;;;;4.70;0.50;;;;;;;;;;6308524;22;20015;-81
2023/05/17 09:56:29;;;;;;;3.50;0.57;;;;;;;;;;6308477;22;20333;-81
2023/05/17 09:58:55;;;;;;;7.85;0.85;;;;;;;;;;6309280;22;20015;-81
2023/05/17 10:01:22;;;;;;;5.10;0.60;;;;;;;;;;6308059;22;20072;-82
2023/05/17 10:03:50;;;;;;;5.40;0.50;;;;;;;;;;6309920;22;20460;-81
2023/05/17 10:06:18;;;;;;;5.97;0.70;;;;;;;;;;6308413;22;20011;-81
2023/05/17 10:08:46;;;;;;;5.82;0.68;;;;;;;;;;6308937;22;20094;-81
2023/05/17 10:11:12;;;;;;;5.00;0.50;;;;;;;;;;6309569;22;20065;-81
2023/05/17 10:13:48;;;;;;;5.68;0.60;;;;;;;;;;6308322;22;20015;-81
2023/05/17 10:16:15;;;;;;;8.77;0.82;;;;;;;;;;6282132;22;20019;-81
2023/05/17 10:18:41;;;;;;;5.25;0.80;;;;;;;;;;6307987;22;20102;-81
2023/05/17 10:21:09;;;;;;;5.25;0.57;;;;;;;;;;6308888;22;20016;-81
2023/05/17 10:23:37;;;;;;;8.68;1.10;;;;;;;;;;6309454;22;20026;-81
2023/05/17 10:26:03;;;;;;;7.03;0.82;;;;;;;;;;6308793;22;20325;-81
2023/05/17 10:28:29;;;;;;;7.40;1.08;;;;;;;;;;6307369;22;20094;-81
2023/05/17 10:30:57;;;;;;;8.55;0.70;;;;;;;;;;6307822;22;20019;-81
2023/05/17 10:33:23;;;;;;;9.15;0.85;;;;;;;;;;6309464;22;20342;-81
2023/05/17 10:35:50;;;;;;;9.00;1.20;;;;;;;;;;6307811;22;20016;-81
2023/05/17 10:38:17;;;;;;;9.20;1.33;;;;;;;;;;6307902;22;20020;-81
2023/05/17 10:40:43;;;;;;;7.72;0.80;;;;;;;;;;6309397;22;20373;-81
2023/05/17 10:43:10;;;;;;;7.38;0.80;;;;;;;;;;6309313;22;20015;-81
2023/05/17 10:45:36;;;;;;;4.88;0.70;;;;;;;;;;6307950;22;20026;-81
2023/05/17 10:48:07;;;;;;;6.15;0.50;;;;;;;;;;6307746;22;20506;-80
2023/05/17 10:50:33;;;;;;;4.65;0.75;;;;;;;;;;6309080;22;20065;-80
2023/05/17 10:52:59;;;;;;;6.63;0.60;;;;;;;;;;6281804;22;20022;-81
2023/05/17 10:55:37;;;;;;;4.43;0.50;;;;;;;;;;6309597;22;20098;-81
2023/05/17 10:58:17;;;;;;;5.00;0.63;;;;;;;;;;6307324;22;20027;-81
2023/05/17 11:00:46;;;;;;;8.15;0.65;;;;;;;;;;6309346;22;20294;-82
2023/05/17 11:03:12;;;;;;;7.93;1.15;;;;;;;;;;6307204;22;20333;-81
2023/05/17 11:05:42;;;;;;;7.30;0.63;;;;;;;;;;6282559;22;20030;-82
2023/05/17 11:08:15;;;;;;;4.00;0.77;;;;;;;;;;6307659;22;20558;-82
2023/05/17 11:11:00;;;;;;;8.68;0.85;;;;;;;;;;6308953;22;20023;-80
2023/05/17 11:13:26;;;;;;;4.30;0.52;;;;;;;;;;6307678;22;20115;-81
2023/05/17 11:16:06;;;;;;;7.57;0.70;;;;;;;;;;6308310;22;20094;-81
2023/05/17 11:18:45;;;;;;;2.35;0.45;;;;;;;;;;6307708;22;20022;-80
2023/05/17 11:21:16;;;;;;;5.10;0.60;;;;;;;;;;6307498;22;20015;-80
2023/05/17 11:23:43;;;;;;;6.65;0.95;;;;;;;;;;6309404;22;20326;-80
2023/05/17 11:26:17;;;;;;;5.93;0.55;;;;;;;;;;6307169;22;20012;-80
2023/05/17 11:28:43;;;;;;;4.55;0.50;;;;;;;;;;6307825;22;20057;-80
2023/05/17 11:31:09;;;;;;;4.90;0.52;;;;;;;;;;6307235;22;20019;-80
2023/05/17 11:33:45;;;;;;;4.72;0.77;;;;;;;;;;6309295;22;20015;-80
2023/05/17 11:36:18;;;;;;;3.55;0.65;;;;;;;;;;6307134;22;20019;-80
2023/05/17 11:38:48;;;;;;;4.72;0.47;;;;;;;;;;6308763;22;20015;-79
2023/05/17 11:41:21;;;;;;;4.82;0.68;;;;;;;;;;6306943;22;20038;-79
2023/05/17 11:43:48;;;;;;;4.25;0.40;;;;;;;;;;6308419;22;20016;-81
2023/05/17 11:46:19;;;;;;;3.95;0.40;;;;;;;;;;6307175;22;20019;-81
2023/05/17 11:48:46;;;;;;;5.35;0.55;;;;;;;;;;6307471;22;20137;-81
2023/05/17 11:51:15;;;;;;;3.38;0.45;;;;;;;;;;6307060;22;20094;-81
2023/05/17 11:53:42;;;;;;;5.38;0.73;;;;;;;;;;6308997;22;20088;-81
2023/05/17 11:56:10;;;;;;;3.30;0.45;;;;;;;;;;6308023;22;20051;-81
2023/05/17 11:58:36;;;;;;;6.18;0.52;;;;;;;;;;6307025;22;20345;-81
2023/05/17 12:01:03;;;;;;;3.92;0.52;;;;;;;;;;6308136;22;20486;-81
2023/05/17 12:03:30;;;;;;;3.45;0.30;;;;;;;;;;6308017;22;20057;-81
2023/05/17 12:06:08;;;;;;;4.00;0.40;;;;;;;;;;6306704;22;20019;-81
2023/05/17 12:08:36;;;;;;;3.72;0.50;;;;;;;;;;6306862;22;20145;-81
2023/05/17 12:11:03;;;;;;;2.38;0.30;;;;;;;;;;6306953;22;20446;-81
2023/05/17 12:13:29;;;;;;;2.47;0.40;;;;;;;;;;6282127;22;20015;-81
2023/05/17 12:16:04;;;;;;;4.85;0.65;;;;;;;;;;6306932;22;20015;-81
2023/05/17 12:18:35;;;;;;;5.00;0.50;;;;;;;;;;6306362;22;20027;-80
2023/05/17 12:21:01;;;;;;;4.53;0.63;;;;;;;;;;6306757;22;20015;-80
2023/05/17 12:23:28;;;;;;;3.65;0.47;;;;;;;;;;6306919;22;20019;-80
2023/05/17 12:26:16;;;;;;;2.38;0.47;;;;;;;;;;6308717;22;20502;-79
2023/05/17 12:28:46;;;;;;;2.88;0.30;;;;;;;;;;6308914;22;20432;-80
2023/05/17 12:31:14;;;;;;;3.45;0.40;;;;;;;;;;6281940;22;20314;-79
2023/05/17 12:33:42;;;;;;;3.13;0.40;;;;;;;;;;6308943;22;20019;-80
2023/05/17 12:36:09;;;;;;;4.03;0.47;;;;;;;;;;6306700;22;20456;-80
2023/05/17 12:38:35;;;;;;;4.95;0.60;;;;;;;;;;6280965;22;20023;-80
2023/05/17 12:41:02;;;;;;;3.90;0.52;;;;;;;;;;6308882;22;20016;-80
2023/05/17 12:43:30;;;;;;;5.10;0.50;;;;;;;;;;6308230;22;20026;-80
2023/05/17 12:46:06;;;;;;;1.90;0.63;;;;;;;;;;6306723;22;20387;-81
2023/05/17 12:48:33;;;;;;;5.60;0.50;;;;;;;;;;6308061;22;20026;-81
2023/05/17 12:51:06;;;;;;;3.20;0.40;;;;;;;;;;6308182;22;20019;-81
2023/05/17 12:53:40;;;;;;;3.75;0.40;;;;;;;;;;6281850;22;20019;-80
2023/05/17 12:56:06;;;;;;;2.72;0.50;;;;;;;;;;6307631;22;20018;-80
2023/05/17 12:58:33;;;;;;;3.95;0.43;;;;;;;;;;6307967;22;20046;-80
2023/05/17 13:01:00;;;;;;;3.90;0.50;;;;;;;;;;6307356;22;20073;-80
2023/05/17 13:03:27;;;;;;;2.00;0.40;;;;;;;;;;6307992;22;20019;-80
2023/05/17 13:06:01;;;;;;;4.50;0.57;;;;;;;;;;6306578;22;20337;-81
2023/05/17 13:08:27;;;;;;;3.78;0.30;;;;;;;;;;6280596;22;20024;-80
2023/05/17 13:10:53;;;;;;;5.35;0.77;;;;;;;;;;6306720;22;20115;-79
2023/05/17 13:13:19;;;;;;;3.05;0.45;;;;;;;;;;6306409;22;20019;-80
2023/05/17 13:15:46;;;;;;;5.10;0.40;;;;;;;;;;6308055;22;20019;-81
2023/05/17 13:18:16;;;;;;;3.58;0.70;;;;;;;;;;6282563;22;20018;-80
2023/05/17 13:20:43;;;;;;;5.43;0.50;;;;;;;;;;6310831;22;20019;-80
2023/05/17 13:23:09;;;;;;;4.63;0.75;;;;;;;;;;6309675;22;20333;-80
2023/05/17 13:25:35;;;;;;;4.80;0.50;;;;;;;;;;6308608;22;20104;-81
2023/05/17 13:28:02;;;;;;;6.25;0.57;;;;;;;;;;6308889;22;20018;-81
2023/05/17 13:30:28;;;;;;;2.47;0.40;;;;;;;;;;6309386;22;20022;-80
2023/05/17 13:32:55;;;;;;;5.35;0.50;;;;;;;;;;6310662;22;20453;-81
2023/05/17 13:35:21;;;;;;;3.33;0.60;;;;;;;;;;6308489;22;20511;-80
2023/05/17 13:37:47;;;;;;;4.45;0.60;;;;;;;;;;6309759;22;20137;-80
2023/05/17 13:40:13;;;;;;;3.53;0.40;;;;;;;;;;6309885;22;20011;-80
2023/05/17 13:42:39;;;;;;;3.22;0.55;;;;;;;;;;6308363;22;20022;-80
2023/05/17 13:45:07;;;;;;;4.88;0.43;;;;;;;;;;6308367;22;20015;-80
2023/05/17 13:47:34;;;;;;;5.72;1.52;;;;;;;;;;6308310;22;20012;-80
2023/05/17 13:50:00;;;;;;;4.95;0.95;;;;;;;;;;6309789;22;20023;-80
2023/05/17 13:52:26;;;;;;;4.10;0.68;;;;;;;;;;6310477;22;20023;-80
2023/05/17 13:54:53;;;;;;;5.93;0.50;;;;;;;;;;6308249;22;20468;-81
2023/05/17 13:57:19;;;;;;;4.47;0.60;;;;;;;;;;6283419;22;20482;-81
2023/05/17 13:59:45;;;;;;;3.55;0.50;;;;;;;;;;6308264;22;20452;-81
2023/05/17 14:02:11;;;;;;;3.05;0.60;;;;;;;;;;6308259;22;20337;-81
2023/05/17 14:04:38;;;;;;;3.42;0.40;;;;;;;;;;6308548;22;20416;-81
2023/05/17 14:07:04;;;;;;;3.88;0.60;;;;;;;;;;6283063;22;20019;-81
2023/05/17 14:09:32;;;;;;;5.50;0.82;;;;;;;;;;6308841;22;20044;-81
2023/05/17 14:11:58;;;;;;;3.47;0.30;;;;;;;;;;6309712;22;20019;-82
2023/05/17 14:14:26;;;;;;;4.63;0.80;;;;;;;;;;6308449;22;20015;-81
2023/05/17 14:16:56;;;;;;;5.78;0.57;;;;;;;;;;6309649;22;20344;-79
2023/05/17 14:19:22;;;;;;;7.07;0.43;;;;;;;;;;6308350;22;20019;-81
2023/05/17 14:21:49;;;;;;;6.07;0.50;;;;;;;;;;6308259;22;20429;-82
2023/05/17 14:24:15;;;;;;;3.25;0.68;;;;;;;;;;6308134;22;20094;-81
2023/05/17 14:26:41;;;;;;;4.43;0.73;;;;;;;;;;6309542;22;20053;-81
2023/05/17 14:29:07;;;;;;;3.70;0.50;;;;;;;;;;6307747;22;20072;-81
2023/05/17 14:31:33;;;;;;;3.08;0.50;;;;;;;;;;6309524;22;20131;-81
2023/05/17 14:34:02;;;;;;;6.88;0.60;;;;;;;;;;6309549;22;20023;-81
2023/05/17 14:36:28;;;;;;;2.60;0.40;;;;;;;;;;6310131;22;20023;-81
2023/05/17 14:38:54;;;;;;;3.90;0.40;;;;;;;;;;6308962;22;20095;-81